Lady Ann Magee — 9HA2775 — position and weather

sailwx.info

Track history (hours):
 
Tides and Currents Weather Stations Pressure Air Temp Water Temp Dewpoint Dewpoint Depression Visibility Wind Speed Wind Dir Waves Ship Positions

Lady Ann Magee

Last reported at 2016-Mar-23 06:13 UTC. Time now 2016-Apr-28 19:47 UTC.
Position N 17°16' W 062°12'.
Warning: this ship's position is 36 days out of date.

Length 50 m; draft 3.4 m.

Type: Pleasure craft. MMSI: 215660000.

Date/timePositionNaut miles runAvg speedWind from/ knotsBaromVisibWave heightAir tempDewpointWater temp
2016-Mar-23 06:13N 17°16' W 062°12'16 8.6
2016-Mar-23 04:22N 17°05' W 061°60'7 8.8
2016-Mar-23 03:33N 17°00' W 061°54'4 4.1
2016-Mar-23 02:33N 17°01' W 061°50'0 0.3
2016-Mar-23 01:33N 17°01' W 061°50'0 0.2
2016-Mar-23 00:34N 17°00' W 061°50'0 0.4
2016-Mar-22 23:32N 17°01' W 061°50'0 0.0
2016-Mar-22 22:32N 17°01' W 061°50'0 0.0
2016-Mar-22 21:32N 17°01' W 061°50'0 0.0
2016-Mar-22 20:32N 17°01' W 061°50'0 0.0
2016-Mar-22 19:32N 17°01' W 061°50'0 0.0
2016-Mar-22 18:32N 17°01' W 061°50'0 0.0
2016-Mar-22 17:32N 17°01' W 061°50'0 0.0
2016-Mar-22 16:32N 17°01' W 061°50'0 0.0
2016-Mar-22 15:29N 17°01' W 061°50'0 0.0
2016-Mar-22 14:32N 17°01' W 061°50'0 0.0
2016-Mar-22 13:32N 17°01' W 061°50'0 0.0
2016-Mar-22 12:32N 17°01' W 061°50'0 0.0
2016-Mar-22 11:32N 17°01' W 061°50'0 0.0
2016-Mar-22 10:32N 17°01' W 061°50'0 0.0
2016-Mar-22 09:32N 17°01' W 061°50'0 0.0
2016-Mar-22 08:32N 17°01' W 061°50'0 0.0
2016-Mar-22 07:32N 17°01' W 061°50'0 0.0
2016-Mar-22 06:32N 17°01' W 061°50'0 0.0
2016-Mar-22 05:32N 17°01' W 061°50'0 0.0
2016-Mar-22 04:32N 17°01' W 061°50'0 0.0
2016-Mar-22 03:32N 17°01' W 061°50'0 0.0
2016-Mar-22 02:32N 17°01' W 061°50'0 0.0
2016-Mar-22 01:32N 17°01' W 061°50'0 0.0
2016-Mar-22 00:32N 17°01' W 061°50'0 0.0
2016-Mar-21 23:32N 17°01' W 061°50'0 0.0
2016-Mar-21 22:29N 17°01' W 061°50'0 0.0
2016-Mar-21 21:29N 17°01' W 061°50'0 0.0
2016-Mar-21 20:29N 17°01' W 061°50'1 0.9
2016-Mar-21 19:34N 16°60' W 061°49'2 2.4
2016-Mar-21 18:31N 17°01' W 061°47'0 0.0
2016-Mar-21 17:31N 17°01' W 061°47'0 0.0
2016-Mar-21 16:31N 17°01' W 061°47'0 0.0
2016-Mar-21 15:31N 17°01' W 061°47'0 0.0
2016-Mar-21 14:31N 17°01' W 061°47'7 6.9
2016-Mar-21 13:33N 16°60' W 061°54'1010.4
2016-Mar-21 12:34N 17°07' W 062°02'1010.4
2016-Mar-21 11:33N 17°14' W 062°10'1010.1
2016-Mar-21 10:34N 17°21' W 062°18'1010.1
2016-Mar-21 09:33N 17°27' W 062°26'  
2016-Mar-18 18:24N 18°26' W 064°31'6 0.8
2016-Mar-18 11:12N 18°25' W 064°37'0 0.0
2016-Mar-18 10:24N 18°25' W 064°37'0 0.0
2016-Mar-18 08:24N 18°25' W 064°37'0 0.0
2016-Mar-18 07:33N 18°25' W 064°37'0 0.0
2016-Mar-18 06:30N 18°25' W 064°37'0 0.0
2016-Mar-18 05:33N 18°25' W 064°37'0 0.0
2016-Mar-18 04:27N 18°25' W 064°37'0 0.0
2016-Mar-18 03:27N 18°25' W 064°37'0 0.0
2016-Mar-18 02:24N 18°25' W 064°37'0 0.0
2016-Mar-18 01:24N 18°25' W 064°37'0 0.0
2016-Mar-18 00:30N 18°25' W 064°37'0 0.0
2016-Mar-17 23:30N 18°25' W 064°37'0 0.0
2016-Mar-17 17:27N 18°25' W 064°37'2 1.1
2016-Mar-17 15:33N 18°24' W 064°35'  
Track history (hours):
 
Tides and Currents Weather Stations Pressure Air Temp Water Temp Dewpoint Dewpoint Depression Visibility Wind Speed Wind Dir Waves Ship Positions

Lady Ann Magee

Last reported at 2016-Mar-23 06:13 UTC. Time now 2016-Apr-28 19:47 UTC.
Position N 17°16' W 062°12'.
Warning: this ship's position is 36 days out of date.

Length 50 m; draft 3.4 m.

Type: Pleasure craft. MMSI: 215660000.

Date/timePositionNaut miles runAvg speedWind from/ knotsBaromVisibWave heightAir tempDewpointWater temp
2016-Mar-23 06:13N 17°16' W 062°12'16 8.6
2016-Mar-23 04:22N 17°05' W 061°60'7 8.8
2016-Mar-23 03:33N 17°00' W 061°54'4 4.1
2016-Mar-23 02:33N 17°01' W 061°50'0 0.3
2016-Mar-23 01:33N 17°01' W 061°50'0 0.2
2016-Mar-23 00:34N 17°00' W 061°50'0 0.4
2016-Mar-22 23:32N 17°01' W 061°50'0 0.0
2016-Mar-22 22:32N 17°01' W 061°50'0 0.0
2016-Mar-22 21:32N 17°01' W 061°50'0 0.0
2016-Mar-22 20:32N 17°01' W 061°50'0 0.0
2016-Mar-22 19:32N 17°01' W 061°50'0 0.0
2016-Mar-22 18:32N 17°01' W 061°50'0 0.0
2016-Mar-22 17:32N 17°01' W 061°50'0 0.0
2016-Mar-22 16:32N 17°01' W 061°50'0 0.0
2016-Mar-22 15:29N 17°01' W 061°50'0 0.0
2016-Mar-22 14:32N 17°01' W 061°50'0 0.0
2016-Mar-22 13:32N 17°01' W 061°50'0 0.0
2016-Mar-22 12:32N 17°01' W 061°50'0 0.0
2016-Mar-22 11:32N 17°01' W 061°50'0 0.0
2016-Mar-22 10:32N 17°01' W 061°50'0 0.0
2016-Mar-22 09:32N 17°01' W 061°50'0 0.0
2016-Mar-22 08:32N 17°01' W 061°50'0 0.0
2016-Mar-22 07:32N 17°01' W 061°50'0 0.0
2016-Mar-22 06:32N 17°01' W 061°50'0 0.0
2016-Mar-22 05:32N 17°01' W 061°50'0 0.0
2016-Mar-22 04:32N 17°01' W 061°50'0 0.0
2016-Mar-22 03:32N 17°01' W 061°50'0 0.0
2016-Mar-22 02:32N 17°01' W 061°50'0 0.0
2016-Mar-22 01:32N 17°01' W 061°50'0 0.0
2016-Mar-22 00:32N 17°01' W 061°50'0 0.0
2016-Mar-21 23:32N 17°01' W 061°50'0 0.0
2016-Mar-21 22:29N 17°01' W 061°50'0 0.0
2016-Mar-21 21:29N 17°01' W 061°50'0 0.0
2016-Mar-21 20:29N 17°01' W 061°50'1 0.9
2016-Mar-21 19:34N 16°60' W 061°49'2 2.4
2016-Mar-21 18:31N 17°01' W 061°47'0 0.0
2016-Mar-21 17:31N 17°01' W 061°47'0 0.0
2016-Mar-21 16:31N 17°01' W 061°47'0 0.0
2016-Mar-21 15:31N 17°01' W 061°47'0 0.0
2016-Mar-21 14:31N 17°01' W 061°47'7 6.9
2016-Mar-21 13:33N 16°60' W 061°54'1010.4
2016-Mar-21 12:34N 17°07' W 062°02'1010.4
2016-Mar-21 11:33N 17°14' W 062°10'1010.1
2016-Mar-21 10:34N 17°21' W 062°18'1010.1
2016-Mar-21 09:33N 17°27' W 062°26'  
2016-Mar-18 18:24N 18°26' W 064°31'6 0.8
2016-Mar-18 11:12N 18°25' W 064°37'0 0.0
2016-Mar-18 10:24N 18°25' W 064°37'0 0.0
2016-Mar-18 08:24N 18°25' W 064°37'0 0.0
2016-Mar-18 07:33N 18°25' W 064°37'0 0.0
2016-Mar-18 06:30N 18°25' W 064°37'0 0.0
2016-Mar-18 05:33N 18°25' W 064°37'0 0.0
2016-Mar-18 04:27N 18°25' W 064°37'0 0.0
2016-Mar-18 03:27N 18°25' W 064°37'0 0.0
2016-Mar-18 02:24N 18°25' W 064°37'0 0.0
2016-Mar-18 01:24N 18°25' W 064°37'0 0.0
2016-Mar-18 00:30N 18°25' W 064°37'0 0.0
2016-Mar-17 23:30N 18°25' W 064°37'0 0.0
2016-Mar-17 17:27N 18°25' W 064°37'2 1.1
2016-Mar-17 15:33N 18°24' W 064°35'  

Dump ship's entire track history